sensor_id;sensor_type;location;lat;lon;timestamp;pressure;altitude;pressure_sealevel;temperature;humidity
56006;BME280;41888;44.696;10.522;2023-12-20T00:00:09;100428.63;;;0.75;100.00
56006;BME280;41888;44.696;10.522;2023-12-20T00:02:35;100421.47;;;0.58;100.00
56006;BME280;41888;44.696;10.522;2023-12-20T00:05:01;100410.63;;;0.43;100.00
56006;BME280;41888;44.696;10.522;2023-12-20T00:07:28;100419.19;;;0.46;100.00
56006;BME280;41888;44.696;10.522;2023-12-20T00:09:54;100408.88;;;0.25;100.00
56006;BME280;41888;44.696;10.522;2023-12-20T00:12:20;100403.59;;;0.44;100.00
56006;BME280;41888;44.696;10.522;2023-12-20T00:14:46;100392.16;;;0.55;100.00
56006;BME280;41888;44.696;10.522;2023-12-20T00:17:12;100388.00;;;0.62;100.00
56006;BME280;41888;44.696;10.522;2023-12-20T00:19:38;100390.59;;;1.08;100.00
56006;BME280;41888;44.696;10.522;2023-12-20T00:22:05;100371.31;;;1.27;100.00
56006;BME280;41888;44.696;10.522;2023-12-20T00:24:31;100377.34;;;1.37;100.00
56006;BME280;41888;44.696;10.522;2023-12-20T00:26:57;100364.00;;;1.31;100.00
56006;BME280;41888;44.696;10.522;2023-12-20T00:29:23;100357.38;;;1.09;100.00
56006;BME280;41888;44.696;10.522;2023-12-20T00:31:49;100364.38;;;0.81;100.00
56006;BME280;41888;44.696;10.522;2023-12-20T00:34:15;100350.13;;;1.20;100.00
56006;BME280;41888;44.696;10.522;2023-12-20T00:36:41;100342.56;;;1.17;100.00
56006;BME280;41888;44.696;10.522;2023-12-20T00:39:08;100333.06;;;1.34;100.00
56006;BME280;41888;44.696;10.522;2023-12-20T00:41:34;100326.34;;;1.49;100.00
56006;BME280;41888;44.696;10.522;2023-12-20T00:44:00;100325.53;;;1.49;100.00
56006;BME280;41888;44.696;10.522;2023-12-20T00:46:26;100320.38;;;1.57;100.00
56006;BME280;41888;44.696;10.522;2023-12-20T00:48:52;100311.22;;;1.61;100.00
56006;BME280;41888;44.696;10.522;2023-12-20T00:51:18;100322.69;;;1.60;100.00
56006;BME280;41888;44.696;10.522;2023-12-20T00:53:45;100323.06;;;1.65;100.00
56006;BME280;41888;44.696;10.522;2023-12-20T00:56:15;100315.72;;;1.51;100.00
56006;BME280;41888;44.696;10.522;2023-12-20T00:58:41;100322.06;;;1.31;100.00
56006;BME280;41888;44.696;10.522;2023-12-20T01:01:07;100314.53;;;1.00;100.00
56006;BME280;41888;44.696;10.522;2023-12-20T01:03:33;100309.81;;;1.04;100.00
56006;BME280;41888;44.696;10.522;2023-12-20T01:06:00;100308.84;;;1.05;100.00
56006;BME280;41888;44.696;10.522;2023-12-20T01:08:26;100302.78;;;1.04;100.00
56006;BME280;41888;44.696;10.522;2023-12-20T01:10:52;100294.25;;;1.02;100.00
56006;BME280;41888;44.696;10.522;2023-12-20T01:13:18;100289.88;;;0.93;100.00
56006;BME280;41888;44.696;10.522;2023-12-20T01:15:45;100290.97;;;1.00;100.00
56006;BME280;41888;44.696;10.522;2023-12-20T01:18:11;100283.00;;;0.92;100.00
56006;BME280;41888;44.696;10.522;2023-12-20T01:20:37;100288.72;;;0.78;100.00
56006;BME280;41888;44.696;10.522;2023-12-20T01:23:03;100277.75;;;0.65;100.00
56006;BME280;41888;44.696;10.522;2023-12-20T01:25:29;100286.38;;;0.48;100.00
56006;BME280;41888;44.696;10.522;2023-12-20T01:27:55;100283.50;;;0.41;100.00
56006;BME280;41888;44.696;10.522;2023-12-20T01:30:22;100275.81;;;0.30;100.00
56006;BME280;41888;44.696;10.522;2023-12-20T01:32:48;100275.81;;;0.30;100.00
56006;BME280;41888;44.696;10.522;2023-12-20T01:35:14;100278.41;;;0.39;100.00
56006;BME280;41888;44.696;10.522;2023-12-20T01:37:40;100273.59;;;0.35;100.00
56006;BME280;41888;44.696;10.522;2023-12-20T01:40:07;100272.03;;;0.15;100.00
56006;BME280;41888;44.696;10.522;2023-12-20T01:42:34;100261.31;;;-0.02;100.00
56006;BME280;41888;44.696;10.522;2023-12-20T01:45:00;100265.72;;;-0.02;100.00
56006;BME280;41888;44.696;10.522;2023-12-20T01:47:26;100264.34;;;-0.16;100.00
56006;BME280;41888;44.696;10.522;2023-12-20T01:49:53;100260.53;;;-0.12;100.00
56006;BME280;41888;44.696;10.522;2023-12-20T01:52:20;100263.25;;;-0.04;100.00
56006;BME280;41888;44.696;10.522;2023-12-20T01:54:47;100259.25;;;-0.08;100.00
56006;BME280;41888;44.696;10.522;2023-12-20T01:57:14;100255.41;;;-0.13;100.00
56006;BME280;41888;44.696;10.522;2023-12-20T01:59:41;100255.53;;;-0.05;100.00
56006;BME280;41888;44.696;10.522;2023-12-20T02:02:08;100251.53;;;0.00;100.00
56006;BME280;41888;44.696;10.522;2023-12-20T02:04:34;100241.78;;;-0.07;100.00
56006;BME280;41888;44.696;10.522;2023-12-20T02:07:01;100248.16;;;-0.38;100.00
56006;BME280;41888;44.696;10.522;2023-12-20T02:09:29;100243.63;;;-0.27;100.00
56006;BME280;41888;44.696;10.522;2023-12-20T02:11:55;100240.97;;;-0.08;100.00
56006;BME280;41888;44.696;10.522;2023-12-20T02:14:21;100244.56;;;-0.18;100.00
56006;BME280;41888;44.696;10.522;2023-12-20T02:16:47;100238.81;;;-0.41;100.00
56006;BME280;41888;44.696;10.522;2023-12-20T02:19:15;100233.72;;;-0.43;100.00
56006;BME280;41888;44.696;10.522;2023-12-20T02:21:41;100238.69;;;-0.49;100.00
56006;BME280;41888;44.696;10.522;2023-12-20T02:24:07;100242.38;;;-0.32;100.00
56006;BME280;41888;44.696;10.522;2023-12-20T02:26:34;100240.41;;;-0.21;100.00
56006;BME280;41888;44.696;10.522;2023-12-20T02:29:01;100233.53;;;-0.12;100.00
56006;BME280;41888;44.696;10.522;2023-12-20T02:31:28;100226.31;;;0.46;100.00
56006;BME280;41888;44.696;10.522;2023-12-20T02:33:54;100223.31;;;0.68;100.00
56006;BME280;41888;44.696;10.522;2023-12-20T02:36:20;100224.09;;;0.51;100.00
56006;BME280;41888;44.696;10.522;2023-12-20T02:38:46;100223.44;;;0.94;100.00
56006;BME280;41888;44.696;10.522;2023-12-20T02:41:12;100222.69;;;1.02;100.00
56006;BME280;41888;44.696;10.522;2023-12-20T02:43:40;100219.22;;;1.01;100.00
56006;BME280;41888;44.696;10.522;2023-12-20T02:46:06;100217.69;;;1.08;100.00
56006;BME280;41888;44.696;10.522;2023-12-20T02:48:32;100220.06;;;1.02;100.00
56006;BME280;41888;44.696;10.522;2023-12-20T02:50:58;100213.47;;;0.98;100.00
56006;BME280;41888;44.696;10.522;2023-12-20T02:53:25;100217.00;;;1.06;100.00
56006;BME280;41888;44.696;10.522;2023-12-20T02:55:51;100227.03;;;1.28;100.00
56006;BME280;41888;44.696;10.522;2023-12-20T02:58:17;100231.00;;;1.33;100.00
56006;BME280;41888;44.696;10.522;2023-12-20T03:00:43;100233.84;;;1.39;100.00
56006;BME280;41888;44.696;10.522;2023-12-20T03:03:10;100232.50;;;1.53;100.00
56006;BME280;41888;44.696;10.522;2023-12-20T03:05:36;100232.19;;;1.38;100.00
56006;BME280;41888;44.696;10.522;2023-12-20T03:08:02;100234.59;;;1.14;100.00
56006;BME280;41888;44.696;10.522;2023-12-20T03:10:28;100225.75;;;0.97;100.00
56006;BME280;41888;44.696;10.522;2023-12-20T03:12:54;100223.72;;;0.91;100.00
56006;BME280;41888;44.696;10.522;2023-12-20T03:15:21;100220.44;;;0.89;100.00
56006;BME280;41888;44.696;10.522;2023-12-20T03:17:47;100215.53;;;0.76;100.00
56006;BME280;41888;44.696;10.522;2023-12-20T03:20:13;100213.31;;;0.54;100.00
56006;BME280;41888;44.696;10.522;2023-12-20T03:22:39;100214.13;;;0.37;100.00
56006;BME280;41888;44.696;10.522;2023-12-20T03:25:05;100226.75;;;0.41;100.00
56006;BME280;41888;44.696;10.522;2023-12-20T03:27:31;100222.88;;;0.46;100.00
56006;BME280;41888;44.696;10.522;2023-12-20T03:29:58;100213.97;;;-0.08;100.00
56006;BME280;41888;44.696;10.522;2023-12-20T03:32:24;100191.75;;;0.06;100.00
56006;BME280;41888;44.696;10.522;2023-12-20T03:34:50;100187.03;;;0.19;100.00
56006;BME280;41888;44.696;10.522;2023-12-20T03:37:16;100179.84;;;0.30;100.00
56006;BME280;41888;44.696;10.522;2023-12-20T03:39:42;100174.22;;;0.53;100.00
56006;BME280;41888;44.696;10.522;2023-12-20T03:42:08;100173.19;;;0.63;100.00
56006;BME280;41888;44.696;10.522;2023-12-20T03:44:37;100166.53;;;0.69;100.00
56006;BME280;41888;44.696;10.522;2023-12-20T03:47:04;100161.00;;;0.72;100.00
56006;BME280;41888;44.696;10.522;2023-12-20T03:49:30;100155.34;;;0.94;100.00
56006;BME280;41888;44.696;10.522;2023-12-20T03:51:56;100148.59;;;1.09;100.00
56006;BME280;41888;44.696;10.522;2023-12-20T03:54:22;100136.47;;;1.08;100.00
56006;BME280;41888;44.696;10.522;2023-12-20T03:56:48;100130.47;;;1.16;100.00
56006;BME280;41888;44.696;10.522;2023-12-20T03:59:15;100120.28;;;1.31;100.00
56006;BME280;41888;44.696;10.522;2023-12-20T04:01:43;100112.25;;;1.32;100.00
56006;BME280;41888;44.696;10.522;2023-12-20T04:04:11;100108.13;;;1.55;100.00
56006;BME280;41888;44.696;10.522;2023-12-20T04:06:37;100100.94;;;1.57;100.00
56006;BME280;41888;44.696;10.522;2023-12-20T04:09:03;100100.84;;;1.67;100.00
56006;BME280;41888;44.696;10.522;2023-12-20T04:11:30;100100.00;;;1.66;100.00
56006;BME280;41888;44.696;10.522;2023-12-20T04:13:56;100082.94;;;1.62;100.00
56006;BME280;41888;44.696;10.522;2023-12-20T04:16:22;100080.47;;;1.61;100.00
56006;BME280;41888;44.696;10.522;2023-12-20T04:18:48;100077.91;;;1.43;100.00
56006;BME280;41888;44.696;10.522;2023-12-20T04:21:14;100087.88;;;1.40;100.00
56006;BME280;41888;44.696;10.522;2023-12-20T04:23:41;100094.22;;;1.11;100.00
56006;BME280;41888;44.696;10.522;2023-12-20T04:26:07;100097.53;;;0.96;100.00
56006;BME280;41888;44.696;10.522;2023-12-20T04:28:33;100097.72;;;0.94;100.00
56006;BME280;41888;44.696;10.522;2023-12-20T04:30:59;100095.38;;;0.91;100.00
56006;BME280;41888;44.696;10.522;2023-12-20T04:33:25;100106.06;;;0.80;100.00
56006;BME280;41888;44.696;10.522;2023-12-20T04:35:51;100104.88;;;0.57;100.00
56006;BME280;41888;44.696;10.522;2023-12-20T04:38:18;100115.00;;;0.52;100.00
56006;BME280;41888;44.696;10.522;2023-12-20T04:40:44;100113.13;;;0.62;100.00
56006;BME280;41888;44.696;10.522;2023-12-20T04:43:10;100104.97;;;0.82;100.00
56006;BME280;41888;44.696;10.522;2023-12-20T04:45:36;100100.69;;;0.81;100.00
56006;BME280;41888;44.696;10.522;2023-12-20T04:48:03;100092.16;;;0.79;100.00
56006;BME280;41888;44.696;10.522;2023-12-20T04:50:30;100089.00;;;0.58;100.00
56006;BME280;41888;44.696;10.522;2023-12-20T04:52:56;100101.16;;;0.41;100.00
56006;BME280;41888;44.696;10.522;2023-12-20T04:55:22;100090.09;;;0.48;100.00
56006;BME280;41888;44.696;10.522;2023-12-20T04:57:48;100090.09;;;0.48;100.00
56006;BME280;41888;44.696;10.522;2023-12-20T05:00:15;100101.47;;;0.29;100.00
56006;BME280;41888;44.696;10.522;2023-12-20T05:02:41;100100.84;;;0.17;100.00
56006;BME280;41888;44.696;10.522;2023-12-20T05:05:08;100100.47;;;0.12;100.00
56006;BME280;41888;44.696;10.522;2023-12-20T05:07:34;100091.59;;;0.23;100.00
56006;BME280;41888;44.696;10.522;2023-12-20T05:10:01;100102.94;;;0.41;100.00
56006;BME280;41888;44.696;10.522;2023-12-20T05:12:27;100095.09;;;0.41;100.00
56006;BME280;41888;44.696;10.522;2023-12-20T05:14:53;100091.00;;;0.29;100.00
56006;BME280;41888;44.696;10.522;2023-12-20T05:17:20;100099.56;;;0.31;100.00
56006;BME280;41888;44.696;10.522;2023-12-20T05:19:46;100106.56;;;0.30;100.00
56006;BME280;41888;44.696;10.522;2023-12-20T05:22:12;100102.50;;;-0.09;100.00
56006;BME280;41888;44.696;10.522;2023-12-20T05:24:39;100106.06;;;-0.01;100.00
56006;BME280;41888;44.696;10.522;2023-12-20T05:27:05;100108.22;;;0.04;100.00
56006;BME280;41888;44.696;10.522;2023-12-20T05:29:31;100119.34;;;0.06;100.00
56006;BME280;41888;44.696;10.522;2023-12-20T05:31:58;100126.06;;;0.18;100.00
56006;BME280;41888;44.696;10.522;2023-12-20T05:34:25;100134.78;;;0.36;100.00
56006;BME280;41888;44.696;10.522;2023-12-20T05:36:51;100128.94;;;0.42;100.00
56006;BME280;41888;44.696;10.522;2023-12-20T05:39:17;100115.38;;;0.02;100.00
56006;BME280;41888;44.696;10.522;2023-12-20T05:41:43;100113.34;;;0.23;100.00
56006;BME280;41888;44.696;10.522;2023-12-20T05:44:09;100114.81;;;0.53;100.00
56006;BME280;41888;44.696;10.522;2023-12-20T05:46:36;100108.25;;;0.49;100.00
56006;BME280;41888;44.696;10.522;2023-12-20T05:49:02;100094.84;;;0.34;100.00
56006;BME280;41888;44.696;10.522;2023-12-20T05:51:28;100090.28;;;0.54;100.00
56006;BME280;41888;44.696;10.522;2023-12-20T05:53:55;100081.69;;;0.79;100.00
56006;BME280;41888;44.696;10.522;2023-12-20T05:56:21;100089.00;;;1.11;100.00
56006;BME280;41888;44.696;10.522;2023-12-20T05:58:48;100090.75;;;1.28;100.00
56006;BME280;41888;44.696;10.522;2023-12-20T06:01:17;100087.16;;;1.30;100.00
56006;BME280;41888;44.696;10.522;2023-12-20T06:03:43;100087.88;;;1.40;100.00
56006;BME280;41888;44.696;10.522;2023-12-20T06:06:10;100081.63;;;1.58;100.00
56006;BME280;41888;44.696;10.522;2023-12-20T06:08:36;100065.50;;;1.79;100.00
56006;BME280;41888;44.696;10.522;2023-12-20T06:11:03;100071.66;;;1.70;100.00
56006;BME280;41888;44.696;10.522;2023-12-20T06:13:29;100061.84;;;1.72;100.00
56006;BME280;41888;44.696;10.522;2023-12-20T06:15:55;100071.19;;;1.75;100.00
56006;BME280;41888;44.696;10.522;2023-12-20T06:18:22;100073.16;;;1.73;100.00
56006;BME280;41888;44.696;10.522;2023-12-20T06:20:49;100070.41;;;1.82;100.00
56006;BME280;41888;44.696;10.522;2023-12-20T06:23:15;100067.66;;;1.84;100.00
56006;BME280;41888;44.696;10.522;2023-12-20T06:25:41;100068.63;;;1.83;100.00
56006;BME280;41888;44.696;10.522;2023-12-20T06:28:08;100077.31;;;1.83;100.00
56006;BME280;41888;44.696;10.522;2023-12-20T06:30:36;100067.94;;;1.81;100.00
56006;BME280;41888;44.696;10.522;2023-12-20T06:33:02;100060.19;;;1.63;100.00
56006;BME280;41888;44.696;10.522;2023-12-20T06:35:28;100063.41;;;1.57;100.00
56006;BME280;41888;44.696;10.522;2023-12-20T06:37:54;100057.09;;;1.67;100.00
56006;BME280;41888;44.696;10.522;2023-12-20T06:40:20;100057.50;;;1.55;100.00
56006;BME280;41888;44.696;10.522;2023-12-20T06:42:47;100061.75;;;1.48;100.00
56006;BME280;41888;44.696;10.522;2023-12-20T06:45:13;100047.34;;;1.52;100.00
56006;BME280;41888;44.696;10.522;2023-12-20T06:47:39;100043.47;;;1.38;100.00
56006;BME280;41888;44.696;10.522;2023-12-20T06:50:06;100052.84;;;1.41;100.00
56006;BME280;41888;44.696;10.522;2023-12-20T06:52:34;100051.69;;;1.43;100.00
56006;BME280;41888;44.696;10.522;2023-12-20T06:55:01;100054.22;;;1.53;100.00
56006;BME280;41888;44.696;10.522;2023-12-20T06:57:27;100057.91;;;1.68;100.00
56006;BME280;41888;44.696;10.522;2023-12-20T06:59:53;100054.53;;;1.84;100.00
56006;BME280;41888;44.696;10.522;2023-12-20T07:02:20;100055.47;;;1.75;100.00
56006;BME280;41888;44.696;10.522;2023-12-20T07:04:47;100055.66;;;1.81;100.00
56006;BME280;41888;44.696;10.522;2023-12-20T07:07:13;100063.88;;;1.86;100.00
56006;BME280;41888;44.696;10.522;2023-12-20T07:09:39;100065.09;;;2.08;100.00
56006;BME280;41888;44.696;10.522;2023-12-20T07:12:08;100073.84;;;2.25;100.00
56006;BME280;41888;44.696;10.522;2023-12-20T07:14:35;100074.25;;;2.38;100.00
56006;BME280;41888;44.696;10.522;2023-12-20T07:17:01;100073.91;;;2.49;100.00
56006;BME280;41888;44.696;10.522;2023-12-20T07:19:27;100081.47;;;2.52;100.00
56006;BME280;41888;44.696;10.522;2023-12-20T07:21:54;100085.91;;;2.51;100.00
56006;BME280;41888;44.696;10.522;2023-12-20T07:24:20;100087.03;;;2.49;100.00
56006;BME280;41888;44.696;10.522;2023-12-20T07:26:46;100085.75;;;2.53;100.00
56006;BME280;41888;44.696;10.522;2023-12-20T07:29:13;100100.50;;;2.46;100.00
56006;BME280;41888;44.696;10.522;2023-12-20T07:31:39;100092.91;;;2.35;100.00
56006;BME280;41888;44.696;10.522;2023-12-20T07:34:05;100104.72;;;2.31;100.00
56006;BME280;41888;44.696;10.522;2023-12-20T07:36:31;100113.91;;;2.35;100.00
56006;BME280;41888;44.696;10.522;2023-12-20T07:38:57;100110.03;;;2.47;100.00
56006;BME280;41888;44.696;10.522;2023-12-20T07:41:23;100111.28;;;2.35;100.00
56006;BME280;41888;44.696;10.522;2023-12-20T07:43:50;100125.78;;;2.47;100.00
56006;BME280;41888;44.696;10.522;2023-12-20T07:46:16;100107.75;;;2.52;100.00
56006;BME280;41888;44.696;10.522;2023-12-20T07:48:42;100123.16;;;2.55;100.00
56006;BME280;41888;44.696;10.522;2023-12-20T07:51:08;100125.47;;;2.58;100.00
56006;BME280;41888;44.696;10.522;2023-12-20T07:53:35;100112.81;;;2.45;100.00
56006;BME280;41888;44.696;10.522;2023-12-20T07:56:02;100111.94;;;2.29;100.00
56006;BME280;41888;44.696;10.522;2023-12-20T07:58:28;100118.50;;;2.33;100.00
56006;BME280;41888;44.696;10.522;2023-12-20T08:00:56;100127.19;;;2.33;100.00
56006;BME280;41888;44.696;10.522;2023-12-20T08:03:22;100135.41;;;2.38;100.00
56006;BME280;41888;44.696;10.522;2023-12-20T08:05:48;100137.78;;;2.58;100.00
56006;BME280;41888;44.696;10.522;2023-12-20T08:08:14;100137.31;;;2.62;100.00
56006;BME280;41888;44.696;10.522;2023-12-20T08:10:40;100138.63;;;2.58;100.00
56006;BME280;41888;44.696;10.522;2023-12-20T08:13:06;100126.94;;;2.61;100.00
56006;BME280;41888;44.696;10.522;2023-12-20T08:15:33;100123.78;;;2.49;100.00
56006;BME280;41888;44.696;10.522;2023-12-20T08:17:59;100120.19;;;2.50;100.00
56006;BME280;41888;44.696;10.522;2023-12-20T08:20:25;100107.25;;;2.48;100.00
56006;BME280;41888;44.696;10.522;2023-12-20T08:22:51;100112.00;;;2.61;100.00
56006;BME280;41888;44.696;10.522;2023-12-20T08:25:18;100127.47;;;2.72;100.00
56006;BME280;41888;44.696;10.522;2023-12-20T08:27:44;100131.09;;;2.87;100.00
56006;BME280;41888;44.696;10.522;2023-12-20T08:30:10;100137.38;;;3.11;100.00
56006;BME280;41888;44.696;10.522;2023-12-20T08:32:37;100123.91;;;3.22;100.00
56006;BME280;41888;44.696;10.522;2023-12-20T08:35:03;100133.28;;;3.32;100.00
56006;BME280;41888;44.696;10.522;2023-12-20T08:37:30;100130.31;;;3.44;100.00
56006;BME280;41888;44.696;10.522;2023-12-20T08:39:56;100136.69;;;3.57;100.00
56006;BME280;41888;44.696;10.522;2023-12-20T08:42:22;100144.91;;;3.62;100.00
56006;BME280;41888;44.696;10.522;2023-12-20T08:44:50;100147.19;;;3.65;100.00
56006;BME280;41888;44.696;10.522;2023-12-20T08:47:16;100138.16;;;3.68;100.00
56006;BME280;41888;44.696;10.522;2023-12-20T08:49:43;100144.06;;;3.62;100.00
56006;BME280;41888;44.696;10.522;2023-12-20T08:52:09;100137.69;;;3.64;100.00
56006;BME280;41888;44.696;10.522;2023-12-20T08:54:36;100131.41;;;3.65;100.00
56006;BME280;41888;44.696;10.522;2023-12-20T08:57:02;100136.66;;;3.73;100.00
56006;BME280;41888;44.696;10.522;2023-12-20T08:59:28;100136.94;;;3.87;100.00
56006;BME280;41888;44.696;10.522;2023-12-20T09:01:54;100140.53;;;4.02;100.00
56006;BME280;41888;44.696;10.522;2023-12-20T09:04:22;100138.84;;;4.17;100.00
56006;BME280;41888;44.696;10.522;2023-12-20T09:06:48;100144.06;;;4.25;100.00
56006;BME280;41888;44.696;10.522;2023-12-20T09:09:14;100134.81;;;4.37;100.00
56006;BME280;41888;44.696;10.522;2023-12-20T09:11:41;100142.50;;;4.47;100.00
56006;BME280;41888;44.696;10.522;2023-12-20T09:14:08;100142.44;;;4.55;100.00
56006;BME280;41888;44.696;10.522;2023-12-20T09:16:34;100139.31;;;4.59;100.00
56006;BME280;41888;44.696;10.522;2023-12-20T09:19:00;100140.94;;;4.60;100.00
56006;BME280;41888;44.696;10.522;2023-12-20T09:21:26;100140.25;;;4.66;100.00
56006;BME280;41888;44.696;10.522;2023-12-20T09:23:53;100135.75;;;4.75;100.00
56006;BME280;41888;44.696;10.522;2023-12-20T09:26:19;100140.84;;;4.77;100.00
56006;BME280;41888;44.696;10.522;2023-12-20T09:28:45;100135.22;;;4.80;100.00
56006;BME280;41888;44.696;10.522;2023-12-20T09:31:11;100136.34;;;4.85;100.00
56006;BME280;41888;44.696;10.522;2023-12-20T09:33:37;100133.19;;;4.90;100.00
56006;BME280;41888;44.696;10.522;2023-12-20T09:36:04;100125.19;;;4.98;100.00
56006;BME280;41888;44.696;10.522;2023-12-20T09:38:31;100111.50;;;5.02;100.00
56006;BME280;41888;44.696;10.522;2023-12-20T09:40:57;100109.78;;;5.09;100.00
56006;BME280;41888;44.696;10.522;2023-12-20T09:43:24;100100.34;;;5.15;100.00
56006;BME280;41888;44.696;10.522;2023-12-20T09:45:54;100100.94;;;5.25;100.00
56006;BME280;41888;44.696;10.522;2023-12-20T09:48:27;100101.22;;;5.30;100.00
56006;BME280;41888;44.696;10.522;2023-12-20T09:50:54;100088.97;;;5.37;100.00
56006;BME280;41888;44.696;10.522;2023-12-20T09:53:21;100083.59;;;5.45;100.00
56006;BME280;41888;44.696;10.522;2023-12-20T09:55:49;100082.88;;;5.51;100.00
56006;BME280;41888;44.696;10.522;2023-12-20T09:58:15;100077.69;;;5.58;100.00
56006;BME280;41888;44.696;10.522;2023-12-20T10:00:43;100083.53;;;5.68;100.00
56006;BME280;41888;44.696;10.522;2023-12-20T10:03:09;100076.69;;;5.74;100.00
56006;BME280;41888;44.696;10.522;2023-12-20T10:05:35;100077.16;;;5.77;100.00
56006;BME280;41888;44.696;10.522;2023-12-20T10:08:02;100071.53;;;5.80;100.00
56006;BME280;41888;44.696;10.522;2023-12-20T10:10:29;100060.34;;;5.93;100.00
56006;BME280;41888;44.696;10.522;2023-12-20T10:13:13;100059.78;;;6.12;100.00
56006;BME280;41888;44.696;10.522;2023-12-20T10:15:39;100059.34;;;6.30;100.00
56006;BME280;41888;44.696;10.522;2023-12-20T10:18:07;100058.56;;;6.51;100.00
56006;BME280;41888;44.696;10.522;2023-12-20T10:20:33;100048.81;;;6.72;100.00
56006;BME280;41888;44.696;10.522;2023-12-20T10:23:00;100048.50;;;7.03;100.00
56006;BME280;41888;44.696;10.522;2023-12-20T10:25:27;100044.56;;;7.20;100.00
56006;BME280;41888;44.696;10.522;2023-12-20T10:28:16;100045.91;;;7.38;100.00
56006;BME280;41888;44.696;10.522;2023-12-20T10:30:47;100042.97;;;7.54;100.00
56006;BME280;41888;44.696;10.522;2023-12-20T10:33:13;100035.78;;;7.76;100.00
56006;BME280;41888;44.696;10.522;2023-12-20T10:35:40;100022.03;;;8.06;100.00
56006;BME280;41888;44.696;10.522;2023-12-20T10:38:08;100027.22;;;8.28;100.00
56006;BME280;41888;44.696;10.522;2023-12-20T10:40:35;100032.34;;;8.36;100.00
56006;BME280;41888;44.696;10.522;2023-12-20T10:43:03;100018.28;;;8.35;100.00
56006;BME280;41888;44.696;10.522;2023-12-20T10:45:30;100026.22;;;8.35;100.00
56006;BME280;41888;44.696;10.522;2023-12-20T10:47:57;100017.88;;;8.32;100.00
56006;BME280;41888;44.696;10.522;2023-12-20T10:50:26;100018.06;;;8.30;100.00
56006;BME280;41888;44.696;10.522;2023-12-20T10:52:52;100014.34;;;8.18;100.00
56006;BME280;41888;44.696;10.522;2023-12-20T10:55:22;100008.63;;;8.08;100.00
56006;BME280;41888;44.696;10.522;2023-12-20T10:58:23;100006.53;;;7.97;100.00
56006;BME280;41888;44.696;10.522;2023-12-20T11:00:44;100012.19;;;7.87;100.00
56006;BME280;41888;44.696;10.522;2023-12-20T11:03:12;100004.41;;;7.79;100.00
56006;BME280;41888;44.696;10.522;2023-12-20T11:08:50;100006.56;;;7.62;100.00
56006;BME280;41888;44.696;10.522;2023-12-20T11:11:31;100013.44;;;7.50;100.00
56006;BME280;41888;44.696;10.522;2023-12-20T11:14:05;100005.44;;;7.44;100.00
56006;BME280;41888;44.696;10.522;2023-12-20T11:16:37;99998.94;;;7.46;100.00
56006;BME280;41888;44.696;10.522;2023-12-20T11:19:06;99999.16;;;7.45;100.00
56006;BME280;41888;44.696;10.522;2023-12-20T11:21:33;100001.28;;;7.28;100.00
56006;BME280;41888;44.696;10.522;2023-12-20T11:24:03;100014.75;;;7.05;100.00
56006;BME280;41888;44.696;10.522;2023-12-20T11:26:30;100017.41;;;6.84;100.00
56006;BME280;41888;44.696;10.522;2023-12-20T11:29:35;100013.63;;;6.72;100.00
56006;BME280;41888;44.696;10.522;2023-12-20T11:32:27;100006.84;;;6.63;100.00
56006;BME280;41888;44.696;10.522;2023-12-20T11:34:47;100007.75;;;6.70;100.00
56006;BME280;41888;44.696;10.522;2023-12-20T11:37:14;100008.09;;;6.67;100.00
56006;BME280;41888;44.696;10.522;2023-12-20T11:39:40;100001.31;;;6.58;100.00
56006;BME280;41888;44.696;10.522;2023-12-20T11:42:06;99999.34;;;6.45;100.00
56006;BME280;41888;44.696;10.522;2023-12-20T11:44:33;99998.41;;;6.31;100.00
56006;BME280;41888;44.696;10.522;2023-12-20T11:47:00;99999.16;;;6.25;100.00
56006;BME280;41888;44.696;10.522;2023-12-20T11:49:26;99996.69;;;6.24;100.00
56006;BME280;41888;44.696;10.522;2023-12-20T11:51:55;100000.03;;;6.11;100.00
56006;BME280;41888;44.696;10.522;2023-12-20T11:54:21;100002.75;;;6.03;100.00
56006;BME280;41888;44.696;10.522;2023-12-20T11:56:48;99995.63;;;5.97;100.00
56006;BME280;41888;44.696;10.522;2023-12-20T11:59:14;99981.19;;;6.00;100.00
56006;BME280;41888;44.696;10.522;2023-12-20T12:01:47;99980.78;;;5.96;100.00
56006;BME280;41888;44.696;10.522;2023-12-20T12:04:14;99981.75;;;5.95;100.00
56006;BME280;41888;44.696;10.522;2023-12-20T12:06:41;99988.13;;;6.01;100.00
56006;BME280;41888;44.696;10.522;2023-12-20T12:09:07;99992.19;;;6.03;100.00
56006;BME280;41888;44.696;10.522;2023-12-20T12:11:34;99988.22;;;6.07;100.00
56006;BME280;41888;44.696;10.522;2023-12-20T12:14:00;99971.16;;;6.10;100.00
56006;BME280;41888;44.696;10.522;2023-12-20T12:16:27;99964.50;;;6.14;100.00
56006;BME280;41888;44.696;10.522;2023-12-20T12:18:57;99972.63;;;6.12;100.00
56006;BME280;41888;44.696;10.522;2023-12-20T12:21:24;99970.03;;;6.19;100.00
56006;BME280;41888;44.696;10.522;2023-12-20T12:23:50;99973.81;;;6.31;100.00
56006;BME280;41888;44.696;10.522;2023-12-20T12:26:16;99981.00;;;6.37;100.00
56006;BME280;41888;44.696;10.522;2023-12-20T12:28:43;99990.56;;;6.38;100.00
56006;BME280;41888;44.696;10.522;2023-12-20T12:31:14;99978.78;;;6.41;100.00
56006;BME280;41888;44.696;10.522;2023-12-20T12:33:43;99974.38;;;6.48;100.00
56006;BME280;41888;44.696;10.522;2023-12-20T12:36:10;99977.34;;;6.38;100.00
56006;BME280;41888;44.696;10.522;2023-12-20T12:38:38;99977.91;;;6.33;100.00
56006;BME280;41888;44.696;10.522;2023-12-20T12:41:05;99976.78;;;6.43;100.00